createdAt,value
2023-02-23T00:00:29.420Z,8.70
2023-02-23T00:03:01.547Z,8.80
2023-02-23T00:05:31.612Z,8.50
2023-02-23T00:08:00.100Z,8.20
2023-02-23T00:10:31.956Z,9.00
2023-02-23T00:13:00.958Z,8.00
2023-02-23T00:15:32.103Z,8.60
2023-02-23T00:18:01.105Z,8.50
2023-02-23T00:20:29.891Z,6.50
2023-02-23T00:22:59.389Z,8.10
2023-02-23T00:25:31.257Z,6.20
2023-02-23T00:28:00.054Z,8.60
2023-02-23T00:30:28.525Z,9.30
2023-02-23T00:32:57.113Z,8.40
2023-02-23T00:35:25.501Z,8.70
2023-02-23T00:37:59.201Z,9.10
2023-02-23T00:40:27.994Z,8.80
2023-02-23T00:42:56.475Z,9.20
2023-02-23T00:45:26.494Z,8.70
2023-02-23T00:47:55.387Z,8.30
2023-02-23T00:50:24.690Z,8.30
2023-02-23T00:52:53.176Z,9.00
2023-02-23T00:55:21.552Z,9.20
2023-02-23T00:57:51.572Z,6.60
2023-02-23T01:00:21.084Z,8.40
2023-02-23T01:02:50.687Z,8.40
2023-02-23T01:05:20.702Z,9.00
2023-02-23T01:07:51.351Z,8.40
2023-02-23T01:10:19.928Z,8.50
2023-02-23T01:12:50.622Z,8.90
2023-02-23T01:15:20.370Z,8.50
2023-02-23T01:17:48.850Z,8.70
2023-02-23T01:20:19.422Z,8.20
2023-02-23T01:22:51.743Z,8.40
2023-02-23T01:25:20.342Z,8.80
2023-02-23T01:27:48.822Z,8.90
2023-02-23T01:30:18.464Z,8.40
2023-02-23T01:32:46.888Z,9.10
2023-02-23T01:35:15.296Z,8.90
2023-02-23T01:37:44.169Z,8.70
2023-02-23T01:40:29.064Z,8.20
2023-02-23T01:43:07.165Z,9.10
2023-02-23T01:45:36.678Z,7.10
2023-02-23T01:48:14.613Z,9.10
2023-02-23T01:50:49.615Z,10.20
2023-02-23T01:53:18.106Z,9.10
2023-02-23T01:55:46.483Z,10.00
2023-02-23T01:58:20.079Z,10.10
2023-02-23T02:00:57.000Z,9.70
2023-02-23T02:03:31.399Z,10.30
2023-02-23T02:06:02.221Z,9.40
2023-02-23T02:08:31.353Z,10.00
2023-02-23T02:11:25.606Z,9.40
2023-02-23T02:13:55.623Z,9.70
2023-02-23T02:17:02.714Z,9.40
2023-02-23T02:20:33.266Z,10.00
2023-02-23T02:23:27.563Z,9.60
2023-02-23T02:26:16.197Z,8.80
2023-02-23T02:28:50.825Z,9.90
2023-02-23T02:31:49.836Z,10.40
2023-02-23T02:34:52.214Z,9.90
2023-02-23T02:37:33.589Z,10.00
2023-02-23T02:40:22.636Z,9.80
2023-02-23T02:43:12.742Z,7.70
2023-02-23T02:46:00.057Z,10.70
2023-02-23T02:48:31.345Z,9.70
2023-02-23T02:51:35.437Z,10.60
2023-02-23T02:54:27.470Z,12.00
2023-02-23T02:56:58.003Z,11.00
2023-02-23T02:59:46.458Z,11.20
2023-02-23T03:02:41.867Z,10.40
2023-02-23T03:05:33.696Z,10.90
2023-02-23T03:08:44.070Z,11.00
2023-02-23T03:11:32.208Z,11.10
2023-02-23T03:14:29.154Z,9.90
2023-02-23T03:17:29.593Z,10.70
2023-02-23T03:20:32.375Z,10.90
2023-02-23T03:23:25.756Z,11.10
2023-02-23T03:26:19.106Z,10.50
2023-02-23T03:29:21.283Z,10.10
2023-02-23T03:32:23.679Z,10.60
2023-02-23T03:35:27.061Z,10.30
2023-02-23T03:38:23.394Z,11.20
2023-02-23T03:41:11.843Z,11.20
2023-02-23T03:44:02.957Z,11.00
2023-02-23T03:46:50.794Z,11.60
2023-02-23T03:49:38.017Z,11.90
2023-02-23T03:52:29.133Z,11.80
2023-02-23T03:55:22.189Z,11.60
2023-02-23T03:58:11.262Z,11.00
2023-02-23T04:01:01.546Z,8.50
2023-02-23T04:03:49.830Z,10.00
2023-02-23T04:06:37.217Z,9.00
2023-02-23T04:09:26.289Z,10.10
2023-02-23T04:12:16.476Z,10.50
2023-02-23T04:14:59.909Z,11.00
2023-02-23T04:17:29.310Z,10.60
2023-02-23T04:19:57.895Z,11.70
2023-02-23T04:22:26.377Z,11.40
2023-02-23T04:24:54.870Z,11.40
2023-02-23T04:27:23.752Z,8.20
2023-02-23T04:29:53.159Z,8.40
2023-02-23T04:32:23.502Z,10.50
2023-02-23T04:34:52.081Z,11.90
2023-02-23T04:37:20.453Z,11.10
2023-02-23T04:39:50.266Z,11.40
2023-02-23T04:44:47.537Z,9.90
2023-02-23T04:47:16.134Z,10.30
2023-02-23T04:49:44.707Z,10.60
2023-02-23T04:52:12.998Z,10.60
2023-02-23T04:54:42.093Z,8.30
2023-02-23T04:57:10.466Z,10.80
2023-02-23T04:59:38.949Z,10.80
2023-02-23T05:02:07.740Z,11.00
2023-02-23T05:04:39.016Z,10.40
2023-02-23T05:07:07.474Z,12.10
2023-02-23T05:09:35.852Z,11.80
2023-02-23T05:12:05.153Z,11.90
2023-02-23T05:14:34.617Z,12.60
2023-02-23T05:17:03.042Z,13.60
2023-02-23T05:19:35.623Z,15.80
2023-02-23T05:22:06.258Z,17.30
2023-02-23T05:24:34.843Z,19.30
2023-02-23T05:27:03.325Z,20.70
2023-02-23T05:29:32.015Z,22.30
2023-02-23T05:32:00.904Z,19.70
2023-02-23T05:34:29.596Z,18.30
2023-02-23T05:36:58.182Z,16.90
2023-02-23T05:39:27.276Z,14.10
2023-02-23T05:41:55.582Z,13.90
2023-02-23T05:44:24.860Z,14.00
2023-02-23T05:46:53.657Z,13.30
2023-02-23T05:49:22.951Z,13.70
2023-02-23T05:51:51.845Z,13.80
2023-02-23T05:54:20.837Z,13.00
2023-02-23T05:56:49.627Z,12.30
2023-02-23T05:59:18.625Z,12.60
2023-02-23T06:01:47.459Z,13.90
2023-02-23T06:04:19.484Z,13.40
2023-02-23T06:06:50.022Z,14.50
2023-02-23T06:09:19.020Z,10.90
2023-02-23T06:11:48.336Z,13.20
2023-02-23T06:14:16.802Z,13.10
2023-02-23T06:16:49.168Z,12.50
2023-02-23T06:19:18.907Z,13.10
2023-02-23T06:21:47.265Z,13.00
2023-02-23T06:24:16.466Z,13.30
2023-02-23T06:26:45.783Z,12.00
2023-02-23T06:29:14.968Z,8.90
2023-02-23T06:31:44.990Z,13.00
2023-02-23T06:34:13.881Z,13.00
2023-02-23T06:36:43.590Z,11.90
2023-02-23T06:39:13.831Z,11.70
2023-02-23T06:41:43.834Z,11.50
2023-02-23T06:44:12.318Z,10.80
2023-02-23T06:46:43.389Z,11.00
2023-02-23T06:49:12.252Z,10.50
2023-02-23T06:51:43.228Z,10.20
2023-02-23T06:54:11.772Z,11.40
2023-02-23T06:56:40.874Z,11.00
2023-02-23T06:59:12.741Z,11.50
2023-02-23T07:01:45.059Z,11.00
2023-02-23T07:04:16.228Z,11.20
2023-02-23T07:06:45.246Z,11.20
2023-02-23T07:09:15.678Z,10.70
2023-02-23T07:11:47.123Z,11.20
2023-02-23T07:14:26.086Z,11.00
2023-02-23T07:16:55.354Z,9.60
2023-02-23T07:19:25.081Z,11.70
2023-02-23T07:21:54.059Z,11.50
2023-02-23T07:24:22.744Z,12.00
2023-02-23T07:26:52.366Z,10.70
2023-02-23T07:29:21.042Z,10.60
2023-02-23T07:31:50.822Z,10.10
2023-02-23T07:34:19.544Z,10.10
2023-02-23T07:36:48.027Z,10.20
2023-02-23T07:39:16.513Z,9.90
2023-02-23T07:41:44.995Z,9.90
2023-02-23T07:44:22.329Z,9.40
2023-02-23T07:46:53.128Z,9.00
2023-02-23T07:49:21.503Z,10.00
2023-02-23T07:51:50.085Z,9.40
2023-02-23T07:56:48.490Z,9.60
2023-02-23T07:59:17.898Z,9.40
2023-02-23T08:01:46.273Z,9.30
2023-02-23T08:04:15.513Z,9.90
2023-02-23T08:06:44.568Z,9.80
2023-02-23T08:09:13.052Z,9.80
2023-02-23T08:11:41.431Z,10.30
2023-02-23T08:14:11.350Z,10.20
2023-02-23T08:16:40.005Z,10.40
2023-02-23T08:19:09.953Z,9.30
2023-02-23T08:21:38.945Z,9.70
2023-02-23T08:24:11.325Z,9.20
2023-02-23T08:26:41.595Z,9.10
2023-02-23T08:29:10.365Z,9.90
2023-02-23T08:31:40.887Z,9.90
2023-02-23T08:34:10.471Z,10.00
2023-02-23T08:36:43.686Z,9.90
2023-02-23T08:39:13.990Z,9.90
2023-02-23T08:41:43.602Z,10.40
2023-02-23T08:44:12.082Z,10.00
2023-02-23T08:47:47.135Z,10.00
2023-02-23T08:50:25.229Z,9.90
2023-02-23T08:52:55.256Z,9.40
2023-02-23T08:55:26.802Z,9.70
2023-02-23T08:57:55.389Z,9.10
2023-02-23T09:00:24.524Z,9.70
2023-02-23T09:02:53.289Z,9.90
2023-02-23T09:05:22.196Z,10.50
2023-02-23T09:07:51.678Z,9.80
2023-02-23T09:10:20.892Z,9.50
2023-02-23T09:12:51.716Z,10.10
2023-02-23T09:15:20.342Z,10.30
2023-02-23T09:17:48.751Z,10.40
2023-02-23T09:20:18.191Z,7.00
2023-02-23T09:22:49.749Z,10.30
2023-02-23T09:25:23.158Z,10.20
2023-02-23T09:27:53.512Z,10.10
2023-02-23T09:30:22.575Z,10.00
2023-02-23T09:32:51.152Z,7.30
2023-02-23T09:35:20.916Z,9.90
2023-02-23T09:37:53.653Z,9.20
2023-02-23T09:40:27.051Z,9.90
2023-02-23T09:43:15.613Z,8.80
2023-02-23T09:45:48.427Z,9.80
2023-02-23T09:48:25.470Z,9.70
2023-02-23T09:50:55.898Z,9.60
2023-02-23T09:53:34.080Z,10.60
2023-02-23T09:56:06.397Z,9.70
2023-02-23T09:58:36.199Z,9.20
2023-02-23T10:02:32.662Z,9.20
2023-02-23T10:05:05.822Z,9.80
2023-02-23T10:07:45.181Z,9.30
2023-02-23T10:10:29.360Z,8.60
2023-02-23T10:13:00.685Z,9.10
2023-02-23T10:15:53.273Z,8.00
2023-02-23T10:18:45.286Z,9.50
2023-02-23T10:21:18.746Z,9.10
2023-02-23T10:23:47.479Z,8.90
2023-02-23T10:26:24.489Z,10.20
2023-02-23T10:28:54.563Z,9.10
2023-02-23T10:31:41.602Z,9.90
2023-02-23T10:34:18.930Z,8.90
2023-02-23T10:36:58.682Z,6.30
2023-02-23T10:39:27.745Z,9.10
2023-02-23T10:42:01.214Z,9.40
2023-02-23T10:44:30.124Z,9.20
2023-02-23T10:47:08.350Z,9.00
2023-02-23T10:49:48.996Z,9.40
2023-02-23T10:52:48.926Z,8.20
2023-02-23T10:55:26.423Z,9.80
2023-02-23T10:58:03.809Z,9.40
2023-02-23T11:00:34.228Z,8.60
2023-02-23T11:03:04.680Z,8.60
2023-02-23T11:05:37.974Z,9.30
2023-02-23T11:08:20.377Z,8.40
2023-02-23T11:11:05.857Z,9.10
2023-02-23T11:13:39.875Z,7.90
2023-02-23T11:16:13.457Z,8.20
2023-02-23T11:19:04.082Z,7.50
2023-02-23T11:21:40.353Z,7.60
2023-02-23T11:24:36.987Z,8.60
2023-02-23T11:27:07.318Z,7.80
2023-02-23T11:29:36.828Z,8.30
2023-02-23T11:32:30.697Z,8.50
2023-02-23T11:35:20.795Z,7.60
2023-02-23T11:37:49.822Z,7.50
2023-02-23T11:40:21.350Z,7.00
2023-02-23T11:42:53.931Z,7.40
2023-02-23T11:45:23.422Z,7.30
2023-02-23T11:47:59.087Z,7.10
2023-02-23T11:50:35.807Z,7.30
2023-02-23T11:53:14.099Z,7.50
2023-02-23T11:55:51.582Z,6.60
2023-02-23T11:58:36.248Z,7.00
2023-02-23T12:01:13.795Z,6.30
2023-02-23T12:03:56.582Z,7.30
2023-02-23T12:06:30.497Z,6.90
2023-02-23T12:09:03.149Z,6.50
2023-02-23T12:11:34.780Z,6.30
2023-02-23T12:14:28.443Z,6.20
2023-02-23T12:17:04.305Z,6.60
2023-02-23T12:19:55.046Z,6.30
2023-02-23T12:22:26.997Z,6.10
2023-02-23T12:25:05.326Z,6.50
2023-02-23T12:27:44.878Z,6.10
2023-02-23T12:30:38.335Z,6.40
2023-02-23T12:33:30.320Z,6.50
2023-02-23T12:36:21.866Z,7.00
2023-02-23T12:38:58.155Z,6.60
2023-02-23T12:41:40.774Z,5.80
2023-02-23T12:44:15.606Z,6.40
2023-02-23T12:46:51.475Z,6.80
2023-02-23T12:49:22.910Z,6.30
2023-02-23T12:51:53.952Z,7.10
2023-02-23T12:54:22.961Z,6.60
2023-02-23T12:56:55.139Z,6.60
2023-02-23T12:59:34.146Z,5.50
2023-02-23T13:02:06.561Z,6.10
2023-02-23T13:04:51.084Z,6.00
2023-02-23T13:07:35.151Z,5.70
2023-02-23T13:10:12.680Z,5.50
2023-02-23T13:12:51.152Z,6.00
2023-02-23T13:15:32.136Z,5.60
2023-02-23T13:18:16.074Z,5.60
2023-02-23T13:20:51.419Z,5.60
2023-02-23T13:23:34.130Z,5.60
2023-02-23T13:26:11.830Z,5.40
2023-02-23T13:29:07.654Z,5.10
2023-02-23T13:31:37.286Z,5.50
2023-02-23T13:34:10.503Z,5.10
2023-02-23T13:36:40.986Z,5.70
2023-02-23T13:39:18.942Z,5.90
2023-02-23T13:41:52.526Z,5.10
2023-02-23T13:44:37.254Z,5.50
2023-02-23T13:47:35.125Z,5.40
2023-02-23T13:50:28.207Z,5.10
2023-02-23T13:52:58.937Z,5.40
2023-02-23T13:55:29.449Z,5.10
2023-02-23T13:58:11.247Z,5.60
2023-02-23T14:00:40.242Z,4.50
2023-02-23T14:03:09.391Z,6.00
2023-02-23T14:05:44.479Z,6.10
2023-02-23T14:08:33.255Z,5.70
2023-02-23T14:11:02.963Z,6.00
2023-02-23T14:13:33.128Z,6.30
2023-02-23T14:16:16.529Z,6.50
2023-02-23T14:18:54.491Z,6.30
2023-02-23T14:21:52.699Z,6.70
2023-02-23T14:24:25.903Z,6.70
2023-02-23T14:27:38.400Z,6.60
2023-02-23T14:30:11.500Z,6.70
2023-02-23T14:32:42.121Z,7.10
2023-02-23T14:35:32.326Z,6.90
2023-02-23T14:38:02.136Z,6.00
2023-02-23T14:40:35.141Z,6.50
2023-02-23T14:43:04.027Z,6.60
2023-02-23T14:45:34.549Z,6.00
2023-02-23T14:48:07.542Z,7.00
2023-02-23T14:50:36.542Z,6.20
2023-02-23T14:53:06.867Z,6.60
2023-02-23T14:55:38.308Z,6.30
2023-02-23T14:58:27.889Z,6.90
2023-02-23T15:00:57.299Z,6.70
2023-02-23T15:03:25.912Z,6.20
2023-02-23T15:05:59.186Z,6.10
2023-02-23T15:08:30.523Z,6.30
2023-02-23T15:13:50.144Z,6.20
2023-02-23T15:16:32.251Z,6.10
2023-02-23T15:19:01.513Z,6.10
2023-02-23T15:21:30.314Z,6.90
2023-02-23T15:24:24.605Z,6.70
2023-02-23T15:26:53.845Z,6.50
2023-02-23T15:29:30.990Z,6.50
2023-02-23T15:32:15.425Z,5.90
2023-02-23T15:34:43.827Z,6.70
2023-02-23T15:37:20.711Z,6.10
2023-02-23T15:39:53.516Z,6.40
2023-02-23T15:42:25.233Z,6.50
2023-02-23T15:45:01.828Z,6.40
2023-02-23T15:47:35.658Z,6.40
2023-02-23T15:50:08.879Z,6.20
2023-02-23T15:52:39.913Z,6.60
2023-02-23T15:55:10.249Z,7.30
2023-02-23T15:57:53.536Z,7.10
2023-02-23T16:00:32.882Z,8.40
2023-02-23T16:03:04.585Z,9.10
2023-02-23T16:05:41.937Z,9.10
2023-02-23T16:08:23.200Z,9.00
2023-02-23T16:11:13.295Z,9.90
2023-02-23T16:13:45.717Z,9.10
2023-02-23T16:16:25.787Z,9.50
2023-02-23T16:19:01.611Z,9.10
2023-02-23T16:21:31.706Z,9.30
2023-02-23T16:24:02.036Z,9.50
2023-02-23T16:26:55.131Z,8.90
2023-02-23T16:29:44.165Z,9.40
2023-02-23T16:32:20.282Z,9.50
2023-02-23T16:35:14.482Z,9.50
2023-02-23T16:38:01.945Z,9.10
2023-02-23T16:40:30.641Z,9.40
2023-02-23T16:42:59.851Z,9.10
2023-02-23T16:45:29.911Z,9.40
2023-02-23T16:48:02.469Z,9.20
2023-02-23T16:50:31.127Z,9.40
2023-02-23T16:53:02.324Z,6.80
2023-02-23T16:55:31.177Z,8.60
2023-02-23T16:58:01.003Z,8.70
2023-02-23T17:00:32.411Z,8.80
2023-02-23T17:03:01.440Z,8.40
2023-02-23T17:05:31.485Z,8.80
2023-02-23T17:08:05.261Z,8.20
2023-02-23T17:10:34.705Z,9.40
2023-02-23T17:13:27.431Z,6.80
2023-02-23T17:15:56.596Z,8.20
2023-02-23T17:18:27.859Z,9.30
2023-02-23T17:20:57.169Z,8.90
2023-02-23T17:23:28.418Z,8.20
2023-02-23T17:28:26.211Z,5.90
2023-02-23T17:30:55.269Z,8.20
2023-02-23T17:33:24.297Z,8.10
2023-02-23T17:35:52.597Z,8.80
2023-02-23T17:38:33.978Z,9.00
2023-02-23T17:41:04.288Z,8.40
2023-02-23T17:43:32.870Z,8.80
2023-02-23T17:46:02.530Z,7.00
2023-02-23T17:48:35.067Z,8.60
2023-02-23T17:51:09.436Z,9.50
2023-02-23T17:53:38.484Z,8.90
2023-02-23T17:56:10.053Z,9.70
2023-02-23T18:01:11.028Z,8.70
2023-02-23T18:06:12.911Z,9.10
2023-02-23T18:11:11.516Z,9.30
2023-02-23T18:13:40.597Z,9.80
2023-02-23T18:16:10.442Z,10.20
2023-02-23T18:18:40.116Z,11.10
2023-02-23T18:21:13.521Z,11.20
2023-02-23T18:23:42.122Z,11.50
2023-02-23T18:26:12.957Z,12.50
2023-02-23T18:28:44.693Z,13.20
2023-02-23T18:31:17.990Z,14.30
2023-02-23T18:33:53.214Z,14.40
2023-02-23T18:36:30.049Z,15.70
2023-02-23T18:38:58.816Z,15.10
2023-02-23T18:41:31.090Z,13.90
2023-02-23T18:44:05.122Z,15.30
2023-02-23T18:46:33.647Z,15.10
2023-02-23T18:49:03.827Z,11.00
2023-02-23T18:51:33.230Z,14.80
2023-02-23T18:54:03.676Z,14.30
2023-02-23T18:59:04.405Z,14.40
2023-02-23T19:01:37.807Z,14.20
2023-02-23T19:04:08.549Z,12.70
2023-02-23T19:06:39.375Z,13.70
2023-02-23T19:09:14.712Z,12.90
2023-02-23T19:11:44.741Z,12.70
2023-02-23T19:14:17.115Z,12.80
2023-02-23T19:16:47.028Z,13.70
2023-02-23T19:19:18.388Z,13.20
2023-02-23T19:21:46.764Z,12.80
2023-02-23T19:24:15.141Z,12.30
2023-02-23T19:26:44.751Z,13.00
2023-02-23T19:29:13.342Z,12.10
2023-02-23T19:31:43.026Z,13.00
2023-02-23T19:34:11.433Z,11.90
2023-02-23T19:36:40.943Z,11.80
2023-02-23T19:39:15.884Z,12.40
2023-02-23T19:41:45.281Z,11.60
2023-02-23T19:44:17.626Z,12.00
2023-02-23T19:46:46.039Z,12.00
2023-02-23T19:49:14.833Z,12.30
2023-02-23T19:51:45.156Z,12.30
2023-02-23T19:56:43.558Z,11.60
2023-02-23T19:59:12.346Z,12.10
2023-02-23T20:01:43.803Z,12.00
2023-02-23T20:04:12.922Z,12.20
2023-02-23T20:06:47.324Z,11.10
2023-02-23T20:09:17.369Z,11.20
2023-02-23T20:11:49.627Z,11.50
2023-02-23T20:14:18.601Z,11.30
2023-02-23T20:16:48.743Z,11.00
2023-02-23T20:19:18.027Z,11.40
2023-02-23T20:21:46.403Z,10.60
2023-02-23T20:24:16.603Z,10.30
2023-02-23T20:26:46.040Z,10.30
2023-02-23T20:29:18.171Z,10.90
2023-02-23T20:31:52.572Z,10.20
2023-02-23T20:34:24.136Z,11.80
2023-02-23T20:36:54.049Z,11.80
2023-02-23T20:41:55.474Z,9.80
2023-02-23T20:44:24.564Z,11.20
2023-02-23T20:46:53.157Z,11.10
2023-02-23T20:49:22.979Z,10.90
2023-02-23T20:51:52.478Z,11.50
2023-02-23T20:54:21.270Z,10.50
2023-02-23T20:57:07.913Z,11.00
2023-02-23T20:59:38.093Z,10.20
2023-02-23T21:02:08.428Z,10.40
2023-02-23T21:04:39.170Z,9.60
2023-02-23T21:07:07.882Z,10.20
2023-02-23T21:09:40.328Z,11.40
2023-02-23T21:12:12.913Z,10.10
2023-02-23T21:14:50.402Z,11.40
2023-02-23T21:17:18.886Z,10.80
2023-02-23T21:19:47.371Z,11.00
2023-02-23T21:22:17.291Z,10.60
2023-02-23T21:24:45.972Z,10.80
2023-02-23T21:27:14.355Z,10.90
2023-02-23T21:29:42.996Z,11.40
2023-02-23T21:32:14.658Z,11.40
2023-02-23T21:34:43.800Z,11.20
2023-02-23T21:37:12.928Z,11.20
2023-02-23T21:42:10.788Z,11.90
2023-02-23T21:44:40.010Z,11.50
2023-02-23T21:47:08.472Z,11.50
2023-02-23T21:49:38.710Z,12.10
2023-02-23T21:52:08.928Z,11.00
2023-02-23T21:54:39.041Z,10.90
2023-02-23T21:57:07.637Z,11.90
2023-02-23T21:59:36.005Z,11.10
2023-02-23T22:02:04.780Z,12.20
2023-02-23T22:04:36.244Z,11.10
2023-02-23T22:07:05.676Z,12.40
2023-02-23T22:12:04.888Z,12.30
2023-02-23T22:14:34.997Z,11.80
2023-02-23T22:20:01.564Z,12.00
2023-02-23T22:22:36.329Z,13.00
2023-02-23T22:25:06.423Z,13.00
2023-02-23T22:27:35.609Z,11.70
2023-02-23T22:30:06.655Z,11.30
2023-02-23T22:32:37.063Z,10.70
2023-02-23T22:35:07.530Z,11.80
2023-02-23T22:40:24.549Z,11.20
2023-02-23T22:42:54.979Z,11.50
2023-02-23T22:45:23.365Z,11.10
2023-02-23T22:47:55.737Z,11.30
2023-02-23T22:50:24.217Z,12.30
2023-02-23T22:52:52.599Z,10.50
2023-02-23T22:55:20.981Z,11.50
2023-02-23T22:57:49.696Z,11.50
2023-02-23T23:00:19.094Z,10.50
2023-02-23T23:02:47.656Z,10.60
2023-02-23T23:05:18.087Z,10.10
2023-02-23T23:07:49.341Z,10.10
2023-02-23T23:10:18.436Z,11.20
2023-02-23T23:12:47.222Z,11.30
2023-02-23T23:15:17.476Z,10.30
2023-02-23T23:17:50.229Z,10.60
2023-02-23T23:20:23.221Z,11.80
2023-02-23T23:22:54.986Z,10.30
2023-02-23T23:25:29.818Z,10.30
2023-02-23T23:27:58.600Z,10.20
2023-02-23T23:30:29.416Z,10.10
2023-02-23T23:32:58.689Z,10.70
2023-02-23T23:35:27.132Z,9.30
2023-02-23T23:37:57.045Z,7.60
2023-02-23T23:40:25.741Z,7.80
2023-02-23T23:42:55.652Z,9.80
2023-02-23T23:47:56.205Z,9.60
2023-02-23T23:50:27.522Z,9.70
2023-02-23T23:52:57.308Z,10.00
2023-02-23T23:55:31.256Z,9.90
2023-02-23T23:58:00.664Z,10.50
